sensor_id;sensor_type;location;lat;lon;timestamp;P1;durP1;ratioP1;P2;durP2;ratioP2
68108;SDS011;54893;49.864;19.084;2023-09-19T00:00:51;15.00;;;8.53;;
68108;SDS011;54893;49.864;19.084;2023-09-19T00:05:57;17.70;;;9.88;;
68108;SDS011;54893;49.864;19.084;2023-09-19T00:10:58;16.40;;;9.18;;
68108;SDS011;54893;49.864;19.084;2023-09-19T00:16:09;13.17;;;9.03;;
68108;SDS011;54893;49.864;19.084;2023-09-19T00:21:10;13.75;;;9.13;;
68108;SDS011;54893;49.864;19.084;2023-09-19T00:26:11;17.17;;;10.10;;
68108;SDS011;54893;49.864;19.084;2023-09-19T00:31:12;14.60;;;9.25;;
68108;SDS011;54893;49.864;19.084;2023-09-19T00:36:13;13.87;;;9.40;;
68108;SDS011;54893;49.864;19.084;2023-09-19T00:41:14;17.13;;;9.60;;
68108;SDS011;54893;49.864;19.084;2023-09-19T00:46:16;15.93;;;9.10;;
68108;SDS011;54893;49.864;19.084;2023-09-19T00:51:17;14.43;;;8.82;;
68108;SDS011;54893;49.864;19.084;2023-09-19T00:56:20;12.75;;;8.77;;
68108;SDS011;54893;49.864;19.084;2023-09-19T01:01:21;14.63;;;9.03;;
68108;SDS011;54893;49.864;19.084;2023-09-19T01:06:21;16.60;;;9.80;;
68108;SDS011;54893;49.864;19.084;2023-09-19T01:11:28;13.50;;;9.57;;
68108;SDS011;54893;49.864;19.084;2023-09-19T01:16:36;16.58;;;10.23;;
68108;SDS011;54893;49.864;19.084;2023-09-19T01:32:30;16.88;;;10.23;;
68108;SDS011;54893;49.864;19.084;2023-09-19T01:37:32;15.10;;;10.17;;
68108;SDS011;54893;49.864;19.084;2023-09-19T01:42:44;16.25;;;9.98;;
68108;SDS011;54893;49.864;19.084;2023-09-19T01:47:52;15.93;;;9.33;;
68108;SDS011;54893;49.864;19.084;2023-09-19T01:53:02;15.90;;;9.50;;
68108;SDS011;54893;49.864;19.084;2023-09-19T01:58:08;15.85;;;10.43;;
68108;SDS011;54893;49.864;19.084;2023-09-19T02:03:16;15.52;;;10.35;;
68108;SDS011;54893;49.864;19.084;2023-09-19T02:08:18;15.35;;;10.52;;
68108;SDS011;54893;49.864;19.084;2023-09-19T02:13:19;16.60;;;9.90;;
68108;SDS011;54893;49.864;19.084;2023-09-19T02:18:21;18.00;;;10.57;;
68108;SDS011;54893;49.864;19.084;2023-09-19T02:23:22;17.67;;;10.43;;
68108;SDS011;54893;49.864;19.084;2023-09-19T02:28:22;15.17;;;10.80;;
68108;SDS011;54893;49.864;19.084;2023-09-19T02:33:22;17.00;;;10.65;;
68108;SDS011;54893;49.864;19.084;2023-09-19T02:38:23;15.60;;;10.00;;
68108;SDS011;54893;49.864;19.084;2023-09-19T02:43:25;15.97;;;10.00;;
68108;SDS011;54893;49.864;19.084;2023-09-19T02:48:26;18.20;;;10.70;;
68108;SDS011;54893;49.864;19.084;2023-09-19T02:53:26;18.25;;;10.75;;
68108;SDS011;54893;49.864;19.084;2023-09-19T02:58:27;17.70;;;11.90;;
68108;SDS011;54893;49.864;19.084;2023-09-19T03:03:30;20.43;;;12.13;;
68108;SDS011;54893;49.864;19.084;2023-09-19T03:08:30;17.40;;;10.88;;
68108;SDS011;54893;49.864;19.084;2023-09-19T03:13:34;18.30;;;11.40;;
68108;SDS011;54893;49.864;19.084;2023-09-19T03:18:36;16.77;;;11.60;;
68108;SDS011;54893;49.864;19.084;2023-09-19T03:23:36;21.50;;;14.67;;
68108;SDS011;54893;49.864;19.084;2023-09-19T03:28:38;22.90;;;14.63;;
68108;SDS011;54893;49.864;19.084;2023-09-19T03:33:38;28.27;;;15.20;;
68108;SDS011;54893;49.864;19.084;2023-09-19T03:38:39;24.63;;;15.47;;
68108;SDS011;54893;49.864;19.084;2023-09-19T03:43:39;25.75;;;15.77;;
68108;SDS011;54893;49.864;19.084;2023-09-19T03:48:39;30.17;;;16.50;;
68108;SDS011;54893;49.864;19.084;2023-09-19T03:53:40;28.03;;;17.73;;
68108;SDS011;54893;49.864;19.084;2023-09-19T03:58:40;33.40;;;18.37;;
68108;SDS011;54893;49.864;19.084;2023-09-19T04:03:40;33.83;;;18.90;;
68108;SDS011;54893;49.864;19.084;2023-09-19T04:08:47;30.83;;;17.80;;
68108;SDS011;54893;49.864;19.084;2023-09-19T04:13:48;33.07;;;20.10;;
68108;SDS011;54893;49.864;19.084;2023-09-19T04:18:49;35.10;;;20.63;;
68108;SDS011;54893;49.864;19.084;2023-09-19T04:23:49;32.88;;;19.48;;
68108;SDS011;54893;49.864;19.084;2023-09-19T04:28:49;33.13;;;19.33;;
68108;SDS011;54893;49.864;19.084;2023-09-19T04:33:50;35.63;;;18.40;;
68108;SDS011;54893;49.864;19.084;2023-09-19T04:38:50;36.45;;;18.63;;
68108;SDS011;54893;49.864;19.084;2023-09-19T04:43:50;35.95;;;18.90;;
68108;SDS011;54893;49.864;19.084;2023-09-19T04:48:51;35.42;;;19.08;;
68108;SDS011;54893;49.864;19.084;2023-09-19T04:53:51;35.20;;;19.40;;
68108;SDS011;54893;49.864;19.084;2023-09-19T04:58:52;38.38;;;21.42;;
68108;SDS011;54893;49.864;19.084;2023-09-19T05:03:52;43.15;;;25.20;;
68108;SDS011;54893;49.864;19.084;2023-09-19T05:08:53;46.57;;;24.53;;
68108;SDS011;54893;49.864;19.084;2023-09-19T05:13:53;45.15;;;24.85;;
68108;SDS011;54893;49.864;19.084;2023-09-19T05:18:55;50.17;;;25.33;;
68108;SDS011;54893;49.864;19.084;2023-09-19T05:23:55;47.90;;;24.23;;
68108;SDS011;54893;49.864;19.084;2023-09-19T05:28:56;46.03;;;25.20;;
68108;SDS011;54893;49.864;19.084;2023-09-19T05:33:56;50.27;;;27.00;;
68108;SDS011;54893;49.864;19.084;2023-09-19T05:38:58;46.63;;;24.83;;
68108;SDS011;54893;49.864;19.084;2023-09-19T05:43:59;43.95;;;23.02;;
68108;SDS011;54893;49.864;19.084;2023-09-19T05:49:00;45.57;;;24.67;;
68108;SDS011;54893;49.864;19.084;2023-09-19T05:54:00;46.43;;;23.73;;
68108;SDS011;54893;49.864;19.084;2023-09-19T05:59:00;49.27;;;25.47;;
68108;SDS011;54893;49.864;19.084;2023-09-19T06:04:01;41.17;;;22.70;;
68108;SDS011;54893;49.864;19.084;2023-09-19T06:09:01;45.78;;;24.20;;
68108;SDS011;54893;49.864;19.084;2023-09-19T06:14:02;37.15;;;20.42;;
68108;SDS011;54893;49.864;19.084;2023-09-19T06:19:03;29.55;;;17.42;;
68108;SDS011;54893;49.864;19.084;2023-09-19T06:24:03;27.83;;;15.40;;
68108;SDS011;54893;49.864;19.084;2023-09-19T06:29:04;28.27;;;14.27;;
68108;SDS011;54893;49.864;19.084;2023-09-19T06:34:07;23.63;;;11.27;;
68108;SDS011;54893;49.864;19.084;2023-09-19T06:39:08;22.50;;;11.70;;
68108;SDS011;54893;49.864;19.084;2023-09-19T06:44:10;21.05;;;11.50;;
68108;SDS011;54893;49.864;19.084;2023-09-19T06:49:11;13.27;;;7.47;;
68108;SDS011;54893;49.864;19.084;2023-09-19T06:54:13;11.97;;;7.17;;
68108;SDS011;54893;49.864;19.084;2023-09-19T06:59:13;14.20;;;7.30;;
68108;SDS011;54893;49.864;19.084;2023-09-19T07:04:14;16.35;;;7.75;;
68108;SDS011;54893;49.864;19.084;2023-09-19T07:09:14;17.23;;;7.97;;
68108;SDS011;54893;49.864;19.084;2023-09-19T07:14:15;17.63;;;7.97;;
68108;SDS011;54893;49.864;19.084;2023-09-19T07:19:15;12.70;;;6.53;;
68108;SDS011;54893;49.864;19.084;2023-09-19T07:24:15;12.73;;;6.10;;
68108;SDS011;54893;49.864;19.084;2023-09-19T07:29:16;13.80;;;6.73;;
68108;SDS011;54893;49.864;19.084;2023-09-19T07:34:16;10.77;;;5.45;;
68108;SDS011;54893;49.864;19.084;2023-09-19T07:39:18;11.90;;;5.57;;
68108;SDS011;54893;49.864;19.084;2023-09-19T07:44:19;11.67;;;5.00;;
68108;SDS011;54893;49.864;19.084;2023-09-19T07:49:20;11.45;;;4.57;;
68108;SDS011;54893;49.864;19.084;2023-09-19T07:54:20;9.32;;;4.32;;
68108;SDS011;54893;49.864;19.084;2023-09-19T07:59:21;9.87;;;4.40;;
68108;SDS011;54893;49.864;19.084;2023-09-19T08:04:21;8.97;;;3.97;;
68108;SDS011;54893;49.864;19.084;2023-09-19T08:09:22;7.73;;;3.77;;
68108;SDS011;54893;49.864;19.084;2023-09-19T08:14:23;9.00;;;4.32;;
68108;SDS011;54893;49.864;19.084;2023-09-19T08:19:25;11.67;;;6.17;;
68108;SDS011;54893;49.864;19.084;2023-09-19T08:24:28;14.73;;;6.60;;
68108;SDS011;54893;49.864;19.084;2023-09-19T08:29:29;18.02;;;8.23;;
68108;SDS011;54893;49.864;19.084;2023-09-19T08:34:30;11.60;;;5.40;;
68108;SDS011;54893;49.864;19.084;2023-09-19T08:39:32;10.50;;;6.20;;
68108;SDS011;54893;49.864;19.084;2023-09-19T08:44:36;10.93;;;5.65;;
68108;SDS011;54893;49.864;19.084;2023-09-19T08:55:14;11.75;;;5.47;;
68108;SDS011;54893;49.864;19.084;2023-09-19T09:00:21;11.00;;;5.07;;
68108;SDS011;54893;49.864;19.084;2023-09-19T09:05:24;12.52;;;5.93;;
68108;SDS011;54893;49.864;19.084;2023-09-19T09:10:27;11.55;;;4.68;;
68108;SDS011;54893;49.864;19.084;2023-09-19T09:15:27;8.97;;;5.00;;
68108;SDS011;54893;49.864;19.084;2023-09-19T09:20:29;9.43;;;5.25;;
68108;SDS011;54893;49.864;19.084;2023-09-19T09:30:59;9.93;;;5.77;;
68108;SDS011;54893;49.864;19.084;2023-09-19T09:36:07;10.35;;;5.30;;
68108;SDS011;54893;49.864;19.084;2023-09-19T09:41:08;13.70;;;6.50;;
68108;SDS011;54893;49.864;19.084;2023-09-19T09:51:40;10.65;;;5.93;;
68108;SDS011;54893;49.864;19.084;2023-09-19T09:56:53;11.37;;;5.53;;
68108;SDS011;54893;49.864;19.084;2023-09-19T10:02:01;10.43;;;5.43;;
68108;SDS011;54893;49.864;19.084;2023-09-19T10:07:03;8.97;;;5.20;;
68108;SDS011;54893;49.864;19.084;2023-09-19T10:12:11;11.00;;;5.60;;
68108;SDS011;54893;49.864;19.084;2023-09-19T10:17:13;10.48;;;5.25;;
68108;SDS011;54893;49.864;19.084;2023-09-19T10:22:20;10.30;;;5.60;;
68108;SDS011;54893;49.864;19.084;2023-09-19T10:27:22;9.75;;;5.28;;
68108;SDS011;54893;49.864;19.084;2023-09-19T10:32:26;11.37;;;5.77;;
68108;SDS011;54893;49.864;19.084;2023-09-19T10:37:31;11.23;;;5.72;;
68108;SDS011;54893;49.864;19.084;2023-09-19T10:42:32;9.30;;;5.32;;
68108;SDS011;54893;49.864;19.084;2023-09-19T10:47:36;10.10;;;5.20;;
68108;SDS011;54893;49.864;19.084;2023-09-19T10:52:39;9.57;;;4.82;;
68108;SDS011;54893;49.864;19.084;2023-09-19T10:57:43;10.27;;;5.00;;
68108;SDS011;54893;49.864;19.084;2023-09-19T11:02:45;8.93;;;4.82;;
68108;SDS011;54893;49.864;19.084;2023-09-19T11:08:22;9.25;;;4.95;;
68108;SDS011;54893;49.864;19.084;2023-09-19T11:13:26;9.13;;;4.60;;
68108;SDS011;54893;49.864;19.084;2023-09-19T11:23:40;10.55;;;4.80;;
68108;SDS011;54893;49.864;19.084;2023-09-19T11:28:41;8.97;;;4.57;;
68108;SDS011;54893;49.864;19.084;2023-09-19T11:33:41;7.97;;;4.87;;
68108;SDS011;54893;49.864;19.084;2023-09-19T11:44:38;8.47;;;4.97;;
68108;SDS011;54893;49.864;19.084;2023-09-19T11:49:13;10.20;;;4.88;;
68108;SDS011;54893;49.864;19.084;2023-09-19T11:54:15;9.00;;;4.63;;
68108;SDS011;54893;49.864;19.084;2023-09-19T11:59:21;8.53;;;4.73;;
68108;SDS011;54893;49.864;19.084;2023-09-19T12:04:34;9.50;;;5.00;;
68108;SDS011;54893;49.864;19.084;2023-09-19T12:09:45;11.63;;;5.57;;
68108;SDS011;54893;49.864;19.084;2023-09-19T12:14:48;10.23;;;5.53;;
68108;SDS011;54893;49.864;19.084;2023-09-19T12:19:49;10.25;;;5.90;;
68108;SDS011;54893;49.864;19.084;2023-09-19T12:24:51;11.03;;;5.90;;
68108;SDS011;54893;49.864;19.084;2023-09-19T12:29:54;9.82;;;5.35;;
68108;SDS011;54893;49.864;19.084;2023-09-19T12:34:55;9.07;;;5.30;;
68108;SDS011;54893;49.864;19.084;2023-09-19T12:40:13;10.55;;;5.28;;
68108;SDS011;54893;49.864;19.084;2023-09-19T12:45:17;8.00;;;4.68;;
68108;SDS011;54893;49.864;19.084;2023-09-19T12:50:18;9.10;;;4.60;;
68108;SDS011;54893;49.864;19.084;2023-09-19T12:55:29;8.57;;;3.67;;
68108;SDS011;54893;49.864;19.084;2023-09-19T13:00:33;8.63;;;4.28;;
68108;SDS011;54893;49.864;19.084;2023-09-19T13:05:47;8.33;;;4.17;;
68108;SDS011;54893;49.864;19.084;2023-09-19T13:16:21;9.85;;;4.68;;
68108;SDS011;54893;49.864;19.084;2023-09-19T13:21:30;7.22;;;4.50;;
68108;SDS011;54893;49.864;19.084;2023-09-19T13:26:42;8.60;;;4.70;;
68108;SDS011;54893;49.864;19.084;2023-09-19T13:31:45;8.20;;;4.30;;
68108;SDS011;54893;49.864;19.084;2023-09-19T13:36:54;8.03;;;4.73;;
68108;SDS011;54893;49.864;19.084;2023-09-19T13:41:54;11.00;;;4.55;;
68108;SDS011;54893;49.864;19.084;2023-09-19T13:46:55;6.70;;;3.97;;
68108;SDS011;54893;49.864;19.084;2023-09-19T13:51:56;6.40;;;3.38;;
68108;SDS011;54893;49.864;19.084;2023-09-19T13:56:58;6.22;;;3.75;;
68108;SDS011;54893;49.864;19.084;2023-09-19T14:01:58;7.13;;;3.40;;
68108;SDS011;54893;49.864;19.084;2023-09-19T14:06:58;8.63;;;3.90;;
68108;SDS011;54893;49.864;19.084;2023-09-19T14:12:00;6.40;;;3.50;;
68108;SDS011;54893;49.864;19.084;2023-09-19T14:17:01;6.70;;;3.80;;
68108;SDS011;54893;49.864;19.084;2023-09-19T14:22:02;5.90;;;3.53;;
68108;SDS011;54893;49.864;19.084;2023-09-19T14:27:07;8.07;;;3.80;;
68108;SDS011;54893;49.864;19.084;2023-09-19T14:32:09;6.60;;;3.47;;
68108;SDS011;54893;49.864;19.084;2023-09-19T14:37:10;6.53;;;3.50;;
68108;SDS011;54893;49.864;19.084;2023-09-19T14:42:11;11.55;;;3.70;;
68108;SDS011;54893;49.864;19.084;2023-09-19T14:47:11;6.97;;;3.57;;
68108;SDS011;54893;49.864;19.084;2023-09-19T14:52:13;6.38;;;3.60;;
68108;SDS011;54893;49.864;19.084;2023-09-19T14:57:15;7.33;;;4.10;;
68108;SDS011;54893;49.864;19.084;2023-09-19T15:02:16;8.65;;;3.83;;
68108;SDS011;54893;49.864;19.084;2023-09-19T15:07:17;9.02;;;4.50;;
68108;SDS011;54893;49.864;19.084;2023-09-19T15:12:17;6.33;;;3.63;;
68108;SDS011;54893;49.864;19.084;2023-09-19T15:17:18;6.93;;;3.87;;
68108;SDS011;54893;49.864;19.084;2023-09-19T15:22:19;5.45;;;3.20;;
68108;SDS011;54893;49.864;19.084;2023-09-19T15:27:20;5.70;;;2.88;;
68108;SDS011;54893;49.864;19.084;2023-09-19T15:32:21;6.30;;;2.50;;
68108;SDS011;54893;49.864;19.084;2023-09-19T15:37:21;6.23;;;3.00;;
68108;SDS011;54893;49.864;19.084;2023-09-19T15:42:22;6.13;;;2.90;;
68108;SDS011;54893;49.864;19.084;2023-09-19T15:47:22;4.63;;;2.70;;
68108;SDS011;54893;49.864;19.084;2023-09-19T15:52:23;4.17;;;2.50;;
68108;SDS011;54893;49.864;19.084;2023-09-19T15:57:26;4.80;;;2.60;;
68108;SDS011;54893;49.864;19.084;2023-09-19T16:02:28;7.00;;;3.40;;
68108;SDS011;54893;49.864;19.084;2023-09-19T16:07:28;6.50;;;3.50;;
68108;SDS011;54893;49.864;19.084;2023-09-19T16:12:30;8.25;;;3.70;;
68108;SDS011;54893;49.864;19.084;2023-09-19T16:17:30;10.35;;;3.70;;
68108;SDS011;54893;49.864;19.084;2023-09-19T16:22:30;7.77;;;3.50;;
68108;SDS011;54893;49.864;19.084;2023-09-19T16:27:31;5.47;;;3.22;;
68108;SDS011;54893;49.864;19.084;2023-09-19T16:32:32;7.00;;;3.45;;
68108;SDS011;54893;49.864;19.084;2023-09-19T16:37:33;6.50;;;3.45;;
68108;SDS011;54893;49.864;19.084;2023-09-19T16:42:33;7.10;;;3.47;;
68108;SDS011;54893;49.864;19.084;2023-09-19T16:47:34;6.33;;;3.40;;
68108;SDS011;54893;49.864;19.084;2023-09-19T16:52:34;7.00;;;3.45;;
68108;SDS011;54893;49.864;19.084;2023-09-19T16:57:34;6.13;;;3.60;;
68108;SDS011;54893;49.864;19.084;2023-09-19T17:02:35;9.77;;;4.20;;
68108;SDS011;54893;49.864;19.084;2023-09-19T17:07:36;9.82;;;4.63;;
68108;SDS011;54893;49.864;19.084;2023-09-19T17:12:38;10.73;;;6.15;;
68108;SDS011;54893;49.864;19.084;2023-09-19T17:17:39;11.30;;;5.70;;
68108;SDS011;54893;49.864;19.084;2023-09-19T17:22:39;11.77;;;6.57;;
68108;SDS011;54893;49.864;19.084;2023-09-19T17:27:39;13.17;;;7.17;;
68108;SDS011;54893;49.864;19.084;2023-09-19T17:32:40;14.85;;;7.22;;
68108;SDS011;54893;49.864;19.084;2023-09-19T17:37:40;15.77;;;8.25;;
68108;SDS011;54893;49.864;19.084;2023-09-19T17:42:41;16.57;;;9.63;;
68108;SDS011;54893;49.864;19.084;2023-09-19T17:47:44;18.43;;;9.60;;
68108;SDS011;54893;49.864;19.084;2023-09-19T17:52:44;20.10;;;10.03;;
68108;SDS011;54893;49.864;19.084;2023-09-19T17:57:44;17.90;;;9.33;;
68108;SDS011;54893;49.864;19.084;2023-09-19T18:02:47;19.88;;;10.30;;
68108;SDS011;54893;49.864;19.084;2023-09-19T18:07:48;20.40;;;11.10;;
68108;SDS011;54893;49.864;19.084;2023-09-19T18:12:48;22.83;;;12.27;;
68108;SDS011;54893;49.864;19.084;2023-09-19T18:17:51;26.27;;;13.13;;
68108;SDS011;54893;49.864;19.084;2023-09-19T18:22:52;25.83;;;13.30;;
68108;SDS011;54893;49.864;19.084;2023-09-19T18:27:53;28.35;;;13.77;;
68108;SDS011;54893;49.864;19.084;2023-09-19T18:32:54;27.27;;;12.47;;
68108;SDS011;54893;49.864;19.084;2023-09-19T18:37:57;27.38;;;13.13;;
68108;SDS011;54893;49.864;19.084;2023-09-19T18:42:57;23.80;;;12.13;;
68108;SDS011;54893;49.864;19.084;2023-09-19T18:47:58;22.70;;;11.20;;
68108;SDS011;54893;49.864;19.084;2023-09-19T18:52:59;20.23;;;10.82;;
68108;SDS011;54893;49.864;19.084;2023-09-19T18:58:00;17.93;;;10.07;;
68108;SDS011;54893;49.864;19.084;2023-09-19T19:03:00;18.42;;;10.68;;
68108;SDS011;54893;49.864;19.084;2023-09-19T19:08:05;20.90;;;9.98;;
68108;SDS011;54893;49.864;19.084;2023-09-19T19:13:05;20.20;;;10.87;;
68108;SDS011;54893;49.864;19.084;2023-09-19T19:18:05;25.95;;;10.65;;
68108;SDS011;54893;49.864;19.084;2023-09-19T19:23:06;19.03;;;10.57;;
68108;SDS011;54893;49.864;19.084;2023-09-19T19:28:06;19.40;;;10.77;;
68108;SDS011;54893;49.864;19.084;2023-09-19T19:33:08;22.25;;;11.38;;
68108;SDS011;54893;49.864;19.084;2023-09-19T19:38:08;21.17;;;11.97;;
68108;SDS011;54893;49.864;19.084;2023-09-19T19:43:09;19.52;;;10.90;;
68108;SDS011;54893;49.864;19.084;2023-09-19T19:48:09;22.52;;;11.85;;
68108;SDS011;54893;49.864;19.084;2023-09-19T19:53:10;19.13;;;11.33;;
68108;SDS011;54893;49.864;19.084;2023-09-19T19:58:13;22.92;;;11.60;;
68108;SDS011;54893;49.864;19.084;2023-09-19T20:03:14;18.37;;;9.80;;
68108;SDS011;54893;49.864;19.084;2023-09-19T20:08:15;18.50;;;9.20;;
68108;SDS011;54893;49.864;19.084;2023-09-19T20:13:15;17.53;;;8.83;;
68108;SDS011;54893;49.864;19.084;2023-09-19T20:18:17;15.70;;;7.65;;
68108;SDS011;54893;49.864;19.084;2023-09-19T20:23:19;12.70;;;7.20;;
68108;SDS011;54893;49.864;19.084;2023-09-19T20:28:20;12.60;;;6.97;;
68108;SDS011;54893;49.864;19.084;2023-09-19T20:33:22;12.73;;;6.47;;
68108;SDS011;54893;49.864;19.084;2023-09-19T20:38:23;11.57;;;6.78;;
68108;SDS011;54893;49.864;19.084;2023-09-19T20:43:24;13.50;;;8.00;;
68108;SDS011;54893;49.864;19.084;2023-09-19T20:48:24;11.27;;;7.10;;
68108;SDS011;54893;49.864;19.084;2023-09-19T20:53:24;12.13;;;6.70;;
68108;SDS011;54893;49.864;19.084;2023-09-19T20:58:26;11.30;;;6.70;;
68108;SDS011;54893;49.864;19.084;2023-09-19T21:03:27;11.75;;;6.18;;
68108;SDS011;54893;49.864;19.084;2023-09-19T21:08:28;11.70;;;6.57;;
68108;SDS011;54893;49.864;19.084;2023-09-19T21:13:28;13.60;;;6.80;;
68108;SDS011;54893;49.864;19.084;2023-09-19T21:18:28;10.33;;;6.23;;
68108;SDS011;54893;49.864;19.084;2023-09-19T21:23:30;12.73;;;5.80;;
68108;SDS011;54893;49.864;19.084;2023-09-19T21:28:31;11.68;;;6.07;;
68108;SDS011;54893;49.864;19.084;2023-09-19T21:33:32;8.93;;;5.43;;
68108;SDS011;54893;49.864;19.084;2023-09-19T21:38:33;9.27;;;5.37;;
68108;SDS011;54893;49.864;19.084;2023-09-19T21:43:33;9.95;;;5.38;;
68108;SDS011;54893;49.864;19.084;2023-09-19T21:48:35;9.07;;;4.90;;
68108;SDS011;54893;49.864;19.084;2023-09-19T21:53:36;9.10;;;5.00;;
68108;SDS011;54893;49.864;19.084;2023-09-19T21:58:37;8.82;;;5.18;;
68108;SDS011;54893;49.864;19.084;2023-09-19T22:03:38;8.52;;;5.10;;
68108;SDS011;54893;49.864;19.084;2023-09-19T22:08:40;8.73;;;5.20;;
68108;SDS011;54893;49.864;19.084;2023-09-19T22:13:41;9.73;;;5.10;;
68108;SDS011;54893;49.864;19.084;2023-09-19T22:18:43;10.07;;;5.03;;
68108;SDS011;54893;49.864;19.084;2023-09-19T22:23:50;9.45;;;4.90;;
68108;SDS011;54893;49.864;19.084;2023-09-19T22:28:52;8.50;;;4.68;;
68108;SDS011;54893;49.864;19.084;2023-09-19T22:33:54;9.23;;;5.28;;
68108;SDS011;54893;49.864;19.084;2023-09-19T22:38:55;9.50;;;5.00;;
68108;SDS011;54893;49.864;19.084;2023-09-19T22:43:59;10.75;;;5.47;;
68108;SDS011;54893;49.864;19.084;2023-09-19T22:49:00;14.03;;;6.00;;
68108;SDS011;54893;49.864;19.084;2023-09-19T22:54:01;10.20;;;5.73;;
68108;SDS011;54893;49.864;19.084;2023-09-19T22:59:03;14.88;;;6.70;;
68108;SDS011;54893;49.864;19.084;2023-09-19T23:04:04;13.63;;;7.28;;
68108;SDS011;54893;49.864;19.084;2023-09-19T23:09:07;12.20;;;6.47;;
68108;SDS011;54893;49.864;19.084;2023-09-19T23:14:08;12.15;;;6.75;;
68108;SDS011;54893;49.864;19.084;2023-09-19T23:19:08;11.85;;;6.90;;
68108;SDS011;54893;49.864;19.084;2023-09-19T23:24:24;12.80;;;6.40;;
68108;SDS011;54893;49.864;19.084;2023-09-19T23:29:29;10.87;;;5.67;;
68108;SDS011;54893;49.864;19.084;2023-09-19T23:34:29;9.97;;;5.40;;
68108;SDS011;54893;49.864;19.084;2023-09-19T23:39:29;11.07;;;5.03;;
68108;SDS011;54893;49.864;19.084;2023-09-19T23:44:30;10.18;;;5.00;;
68108;SDS011;54893;49.864;19.084;2023-09-19T23:49:30;10.15;;;5.10;;
68108;SDS011;54893;49.864;19.084;2023-09-19T23:54:31;9.37;;;5.20;;
68108;SDS011;54893;49.864;19.084;2023-09-19T23:59:34;10.25;;;5.13;;
